Detall de PIREP

Printer-friendly versionPDF version

[2013/10/25 09:56:00]
Flight IATA:CT3232
Pilot Number:042
Company ICAO:CAT
Aircraft Type:B744/E
PAX:200
Departing Airport: LEPA
Destination Airport: LEMD
Alternate Airport:LEMG
Online: VATSIM
Route:EPAMA UN733 PRADO
Flight Level:F300
No Slew and time accel
No pause
Crash detect
Detect pilot in Cockpit between each 30 and 45 minutes
09:56 Zero fuel Weight: 408051 Lbs, Fuel Weight: 320437 Lbs
09:56 VATSIM:LEPA 250930Z 05008KT 020V080 9999 FEW020 25/19 Q1016 NOSIG
09:56 VATSIM:LEMD 250930Z 12003KT 9999 -DZ FEW009 BKN050 15/15 Q1015 R99/19//95 NOSIG
09:58 VOICE CATALONIAN
10:07 Parking Brakes off
10:19 Take-off
10:19 Take off Weight: 724689 Lbs
10:19 Wind: 000º @ 000 Knots Heading: 059º
10:19 POS N39º 33´ 42´´ E002º 44´ 31´´
10:19 Flaps:2 at 202 Knots
10:19 Gear Up: 197 Knots
10:20 Flaps:1 at 212 Knots
10:21 Flaps:0 at 222 Knots
10:34 Wind:270º@025 Knots Heading:258º Ground Speed: 456 Knots Altitude 28152 ft
10:35 TOC
10:35 Fuel Weight: 305860 Lb
10:49 Wind:270º@025 Knots Heading: 298º Ground Speed: 466 Knots Altitude 29996 ft
10:50 TOD
10:50 Fuel Weight: 300879 Lb
11:04 Wind:270º@024 Knots Heading: 316º Ground Speed: 306 Knots Altitude 16463 ft
11:06 Flaps:1 at 252 Knots
11:07 Flaps:2 at 235 Knots
11:15 Flaps:3 at 224 Knots
11:16 Flaps:2 at 235 Knots
11:18 Flaps:3 at 229 Knots
11:18 Gear Down: 209 Knots
11:18 Flaps:4 at 191 Knots
11:19 Wind:000º@000 Knots Heading: 180º Ground Speed: 195 Knots Altitude 4288 ft
11:19 Flaps:5 at 176 Knots
11:20 Flaps:6 at 173 Knots
11:21 TouchDown:Rate -306 ft/min Speed: 170 Knots
11:21 VATSIM:LEMD 251100Z 18006G20KT 120V230 9999 RA SCT006 BKN050 16/16 Q1015 R99/19//95 TEMPO BKN008
11:21 Land
11:21 Wind:000º@000 Knots
11:21 Heading: 180º
11:21 Flight Duration: 01:02
11:21 Landing Weight: 703300 Lbs
11:21 POS N40º 30´ 32´´ W003º 33´ 32´´
11:25 Parking brakes on
11:25 Block to Block Duration: 01:18
11:25 Final Fuel: 294270 Lbls
11:25 Spent Fuel: 26166 Lbls
11:25 Flight Length: 366 NM
11:25 TOD Land Length: 156 NM

Exportar CSV

Powered by Drupal - Modified by Danger4k